sensor_id;sensor_type;location;lat;lon;timestamp;P1;durP1;ratioP1;P2;durP2;ratioP2
69207;SDS011;56321;47.662;8.878;2023-02-22T00:00:21;12.15;;;4.22;;
69207;SDS011;56321;47.662;8.878;2023-02-22T00:02:53;12.73;;;4.40;;
69207;SDS011;56321;47.662;8.878;2023-02-22T00:05:24;11.80;;;4.50;;
69207;SDS011;56321;47.662;8.878;2023-02-22T00:07:51;11.73;;;4.22;;
69207;SDS011;56321;47.662;8.878;2023-02-22T00:10:17;11.17;;;4.23;;
69207;SDS011;56321;47.662;8.878;2023-02-22T00:12:46;14.45;;;4.70;;
69207;SDS011;56321;47.662;8.878;2023-02-22T00:15:13;13.35;;;4.80;;
69207;SDS011;56321;47.662;8.878;2023-02-22T00:17:40;12.68;;;4.55;;
69207;SDS011;56321;47.662;8.878;2023-02-22T00:20:06;12.33;;;5.07;;
69207;SDS011;56321;47.662;8.878;2023-02-22T00:22:32;13.38;;;5.22;;
69207;SDS011;56321;47.662;8.878;2023-02-22T00:24:58;13.07;;;5.70;;
69207;SDS011;56321;47.662;8.878;2023-02-22T00:27:23;11.07;;;5.13;;
69207;SDS011;56321;47.662;8.878;2023-02-22T00:29:49;13.20;;;5.47;;
69207;SDS011;56321;47.662;8.878;2023-02-22T00:32:14;13.00;;;5.20;;
69207;SDS011;56321;47.662;8.878;2023-02-22T00:34:40;13.53;;;5.80;;
69207;SDS011;56321;47.662;8.878;2023-02-22T00:37:07;14.57;;;6.05;;
69207;SDS011;56321;47.662;8.878;2023-02-22T00:39:33;13.23;;;5.85;;
69207;SDS011;56321;47.662;8.878;2023-02-22T00:41:59;12.67;;;5.23;;
69207;SDS011;56321;47.662;8.878;2023-02-22T00:44:24;12.37;;;4.90;;
69207;SDS011;56321;47.662;8.878;2023-02-22T00:46:49;13.30;;;5.00;;
69207;SDS011;56321;47.662;8.878;2023-02-22T00:49:15;11.73;;;4.90;;
69207;SDS011;56321;47.662;8.878;2023-02-22T00:51:41;12.95;;;5.45;;
69207;SDS011;56321;47.662;8.878;2023-02-22T00:54:06;12.40;;;5.20;;
69207;SDS011;56321;47.662;8.878;2023-02-22T00:56:32;13.18;;;5.75;;
69207;SDS011;56321;47.662;8.878;2023-02-22T00:58:59;12.57;;;5.32;;
69207;SDS011;56321;47.662;8.878;2023-02-22T01:01:25;11.63;;;5.03;;
69207;SDS011;56321;47.662;8.878;2023-02-22T01:03:51;12.80;;;5.03;;
69207;SDS011;56321;47.662;8.878;2023-02-22T01:06:17;14.05;;;6.10;;
69207;SDS011;56321;47.662;8.878;2023-02-22T01:08:43;12.30;;;5.33;;
69207;SDS011;56321;47.662;8.878;2023-02-22T01:11:09;13.95;;;5.25;;
69207;SDS011;56321;47.662;8.878;2023-02-22T01:13:34;11.80;;;4.90;;
69207;SDS011;56321;47.662;8.878;2023-02-22T01:16:00;12.90;;;5.20;;
69207;SDS011;56321;47.662;8.878;2023-02-22T01:18:27;12.65;;;5.53;;
69207;SDS011;56321;47.662;8.878;2023-02-22T01:20:52;12.27;;;4.83;;
69207;SDS011;56321;47.662;8.878;2023-02-22T01:23:17;13.43;;;5.17;;
69207;SDS011;56321;47.662;8.878;2023-02-22T01:25:43;14.23;;;5.37;;
69207;SDS011;56321;47.662;8.878;2023-02-22T01:28:08;13.23;;;5.10;;
69207;SDS011;56321;47.662;8.878;2023-02-22T01:30:34;13.60;;;5.13;;
69207;SDS011;56321;47.662;8.878;2023-02-22T01:33:01;11.65;;;4.93;;
69207;SDS011;56321;47.662;8.878;2023-02-22T01:35:29;16.03;;;5.23;;
69207;SDS011;56321;47.662;8.878;2023-02-22T01:37:56;13.85;;;5.10;;
69207;SDS011;56321;47.662;8.878;2023-02-22T01:40:30;12.95;;;4.85;;
69207;SDS011;56321;47.662;8.878;2023-02-22T01:42:58;12.30;;;4.85;;
69207;SDS011;56321;47.662;8.878;2023-02-22T01:50:33;12.68;;;5.28;;
69207;SDS011;56321;47.662;8.878;2023-02-22T01:53:01;14.63;;;5.45;;
69207;SDS011;56321;47.662;8.878;2023-02-22T01:55:28;12.07;;;4.90;;
69207;SDS011;56321;47.662;8.878;2023-02-22T01:57:54;14.30;;;4.93;;
69207;SDS011;56321;47.662;8.878;2023-02-22T02:00:20;14.00;;;5.33;;
69207;SDS011;56321;47.662;8.878;2023-02-22T02:02:47;12.77;;;4.88;;
69207;SDS011;56321;47.662;8.878;2023-02-22T02:05:16;13.10;;;5.20;;
69207;SDS011;56321;47.662;8.878;2023-02-22T02:07:42;13.43;;;5.05;;
69207;SDS011;56321;47.662;8.878;2023-02-22T02:10:11;12.80;;;4.88;;
69207;SDS011;56321;47.662;8.878;2023-02-22T02:12:40;13.27;;;5.13;;
69207;SDS011;56321;47.662;8.878;2023-02-22T02:15:24;13.25;;;5.20;;
69207;SDS011;56321;47.662;8.878;2023-02-22T02:17:56;13.40;;;5.60;;
69207;SDS011;56321;47.662;8.878;2023-02-22T02:20:40;13.52;;;5.53;;
69207;SDS011;56321;47.662;8.878;2023-02-22T02:23:44;14.27;;;6.50;;
69207;SDS011;56321;47.662;8.878;2023-02-22T02:42:42;13.27;;;6.35;;
69207;SDS011;56321;47.662;8.878;2023-02-22T02:45:16;15.68;;;6.68;;
69207;SDS011;56321;47.662;8.878;2023-02-22T02:47:48;14.63;;;6.30;;
69207;SDS011;56321;47.662;8.878;2023-02-22T02:50:20;12.77;;;6.10;;
69207;SDS011;56321;47.662;8.878;2023-02-22T02:52:50;12.70;;;6.10;;
69207;SDS011;56321;47.662;8.878;2023-02-22T02:55:19;13.63;;;5.78;;
69207;SDS011;56321;47.662;8.878;2023-02-22T02:57:45;13.95;;;6.13;;
69207;SDS011;56321;47.662;8.878;2023-02-22T03:00:10;13.00;;;6.00;;
69207;SDS011;56321;47.662;8.878;2023-02-22T03:05:37;13.50;;;6.05;;
69207;SDS011;56321;47.662;8.878;2023-02-22T03:11:04;12.10;;;6.25;;
69207;SDS011;56321;47.662;8.878;2023-02-22T03:16:23;12.65;;;5.80;;
69207;SDS011;56321;47.662;8.878;2023-02-22T03:21:54;14.67;;;6.63;;
69207;SDS011;56321;47.662;8.878;2023-02-22T03:24:32;13.43;;;6.57;;
69207;SDS011;56321;47.662;8.878;2023-02-22T03:27:26;14.35;;;6.47;;
69207;SDS011;56321;47.662;8.878;2023-02-22T03:29:59;13.65;;;6.32;;
69207;SDS011;56321;47.662;8.878;2023-02-22T03:32:30;12.55;;;6.03;;
69207;SDS011;56321;47.662;8.878;2023-02-22T03:35:02;12.97;;;5.67;;
69207;SDS011;56321;47.662;8.878;2023-02-22T03:37:31;14.18;;;6.10;;
69207;SDS011;56321;47.662;8.878;2023-02-22T03:40:02;14.38;;;5.97;;
69207;SDS011;56321;47.662;8.878;2023-02-22T03:42:42;12.98;;;5.53;;
69207;SDS011;56321;47.662;8.878;2023-02-22T03:45:12;12.32;;;5.28;;
69207;SDS011;56321;47.662;8.878;2023-02-22T03:47:41;12.10;;;5.70;;
69207;SDS011;56321;47.662;8.878;2023-02-22T03:50:17;14.15;;;5.38;;
69207;SDS011;56321;47.662;8.878;2023-02-22T03:52:45;13.68;;;5.13;;
69207;SDS011;56321;47.662;8.878;2023-02-22T03:55:11;14.00;;;5.65;;
69207;SDS011;56321;47.662;8.878;2023-02-22T03:57:41;13.98;;;5.40;;
69207;SDS011;56321;47.662;8.878;2023-02-22T04:00:13;12.97;;;5.20;;
69207;SDS011;56321;47.662;8.878;2023-02-22T04:02:42;15.15;;;5.30;;
69207;SDS011;56321;47.662;8.878;2023-02-22T04:05:08;12.10;;;4.90;;
69207;SDS011;56321;47.662;8.878;2023-02-22T04:07:34;12.65;;;5.22;;
69207;SDS011;56321;47.662;8.878;2023-02-22T04:10:00;13.03;;;5.23;;
69207;SDS011;56321;47.662;8.878;2023-02-22T04:12:27;13.70;;;5.43;;
69207;SDS011;56321;47.662;8.878;2023-02-22T04:14:52;13.17;;;5.00;;
69207;SDS011;56321;47.662;8.878;2023-02-22T04:17:18;11.93;;;5.00;;
69207;SDS011;56321;47.662;8.878;2023-02-22T04:19:43;12.33;;;5.73;;
69207;SDS011;56321;47.662;8.878;2023-02-22T04:22:09;12.43;;;5.10;;
69207;SDS011;56321;47.662;8.878;2023-02-22T04:24:35;13.73;;;5.53;;
69207;SDS011;56321;47.662;8.878;2023-02-22T04:27:00;14.13;;;5.53;;
69207;SDS011;56321;47.662;8.878;2023-02-22T04:29:25;12.80;;;5.30;;
69207;SDS011;56321;47.662;8.878;2023-02-22T04:31:51;12.97;;;5.50;;
69207;SDS011;56321;47.662;8.878;2023-02-22T04:34:16;13.53;;;5.50;;
69207;SDS011;56321;47.662;8.878;2023-02-22T04:36:41;12.70;;;5.67;;
69207;SDS011;56321;47.662;8.878;2023-02-22T04:39:08;12.75;;;5.32;;
69207;SDS011;56321;47.662;8.878;2023-02-22T04:41:34;13.63;;;5.73;;
69207;SDS011;56321;47.662;8.878;2023-02-22T04:43:59;14.38;;;5.70;;
69207;SDS011;56321;47.662;8.878;2023-02-22T04:46:25;13.47;;;5.27;;
69207;SDS011;56321;47.662;8.878;2023-02-22T04:48:50;15.23;;;6.30;;
69207;SDS011;56321;47.662;8.878;2023-02-22T04:51:15;14.50;;;5.97;;
69207;SDS011;56321;47.662;8.878;2023-02-22T04:53:41;14.43;;;5.90;;
69207;SDS011;56321;47.662;8.878;2023-02-22T04:56:06;14.10;;;5.70;;
69207;SDS011;56321;47.662;8.878;2023-02-22T04:58:31;12.43;;;5.50;;
69207;SDS011;56321;47.662;8.878;2023-02-22T05:00:57;13.18;;;5.05;;
69207;SDS011;56321;47.662;8.878;2023-02-22T05:03:24;14.37;;;5.33;;
69207;SDS011;56321;47.662;8.878;2023-02-22T05:05:50;13.87;;;6.33;;
69207;SDS011;56321;47.662;8.878;2023-02-22T05:08:16;12.77;;;5.72;;
69207;SDS011;56321;47.662;8.878;2023-02-22T05:10:41;18.10;;;7.63;;
69207;SDS011;56321;47.662;8.878;2023-02-22T05:13:07;16.50;;;7.73;;
69207;SDS011;56321;47.662;8.878;2023-02-22T05:15:33;15.48;;;7.20;;
69207;SDS011;56321;47.662;8.878;2023-02-22T05:17:58;16.73;;;8.23;;
69207;SDS011;56321;47.662;8.878;2023-02-22T05:22:54;17.60;;;9.20;;
69207;SDS011;56321;47.662;8.878;2023-02-22T05:25:20;17.30;;;8.98;;
69207;SDS011;56321;47.662;8.878;2023-02-22T05:27:56;15.77;;;7.57;;
69207;SDS011;56321;47.662;8.878;2023-02-22T05:30:27;15.00;;;7.53;;
69207;SDS011;56321;47.662;8.878;2023-02-22T05:32:54;15.05;;;7.68;;
69207;SDS011;56321;47.662;8.878;2023-02-22T05:35:20;16.27;;;8.43;;
69207;SDS011;56321;47.662;8.878;2023-02-22T05:37:46;18.75;;;10.30;;
69207;SDS011;56321;47.662;8.878;2023-02-22T05:40:12;19.27;;;10.07;;
69207;SDS011;56321;47.662;8.878;2023-02-22T05:42:39;16.45;;;8.77;;
69207;SDS011;56321;47.662;8.878;2023-02-22T05:45:05;15.73;;;8.20;;
69207;SDS011;56321;47.662;8.878;2023-02-22T05:47:31;15.17;;;7.00;;
69207;SDS011;56321;47.662;8.878;2023-02-22T05:49:56;14.57;;;6.28;;
69207;SDS011;56321;47.662;8.878;2023-02-22T05:52:21;14.97;;;6.30;;
69207;SDS011;56321;47.662;8.878;2023-02-22T05:54:47;14.50;;;5.70;;
69207;SDS011;56321;47.662;8.878;2023-02-22T05:57:12;13.77;;;6.20;;
69207;SDS011;56321;47.662;8.878;2023-02-22T05:59:37;13.90;;;6.07;;
69207;SDS011;56321;47.662;8.878;2023-02-22T06:02:02;14.00;;;5.93;;
69207;SDS011;56321;47.662;8.878;2023-02-22T06:04:28;14.50;;;6.30;;
69207;SDS011;56321;47.662;8.878;2023-02-22T06:06:54;15.00;;;6.90;;
69207;SDS011;56321;47.662;8.878;2023-02-22T06:09:19;14.03;;;6.67;;
69207;SDS011;56321;47.662;8.878;2023-02-22T06:11:45;13.57;;;6.47;;
69207;SDS011;56321;47.662;8.878;2023-02-22T06:14:10;13.27;;;6.03;;
69207;SDS011;56321;47.662;8.878;2023-02-22T06:16:36;16.10;;;6.47;;
69207;SDS011;56321;47.662;8.878;2023-02-22T06:19:01;13.37;;;6.37;;
69207;SDS011;56321;47.662;8.878;2023-02-22T06:21:26;14.07;;;6.40;;
69207;SDS011;56321;47.662;8.878;2023-02-22T06:23:52;14.70;;;7.13;;
69207;SDS011;56321;47.662;8.878;2023-02-22T06:26:17;17.10;;;6.77;;
69207;SDS011;56321;47.662;8.878;2023-02-22T06:28:44;13.37;;;6.33;;
69207;SDS011;56321;47.662;8.878;2023-02-22T06:31:12;14.70;;;7.03;;
69207;SDS011;56321;47.662;8.878;2023-02-22T06:33:38;13.90;;;6.87;;
69207;SDS011;56321;47.662;8.878;2023-02-22T06:36:03;16.00;;;7.73;;
69207;SDS011;56321;47.662;8.878;2023-02-22T06:38:29;13.85;;;6.97;;
69207;SDS011;56321;47.662;8.878;2023-02-22T06:40:54;14.80;;;8.00;;
69207;SDS011;56321;47.662;8.878;2023-02-22T06:43:20;15.20;;;8.10;;
69207;SDS011;56321;47.662;8.878;2023-02-22T06:45:46;16.65;;;8.52;;
69207;SDS011;56321;47.662;8.878;2023-02-22T06:48:12;16.93;;;9.43;;
69207;SDS011;56321;47.662;8.878;2023-02-22T06:50:38;16.07;;;9.10;;
69207;SDS011;56321;47.662;8.878;2023-02-22T06:53:03;17.65;;;10.93;;
69207;SDS011;56321;47.662;8.878;2023-02-22T06:55:29;20.57;;;12.13;;
69207;SDS011;56321;47.662;8.878;2023-02-22T06:57:57;15.85;;;9.15;;
69207;SDS011;56321;47.662;8.878;2023-02-22T07:00:23;15.50;;;7.82;;
69207;SDS011;56321;47.662;8.878;2023-02-22T07:02:50;13.83;;;6.83;;
69207;SDS011;56321;47.662;8.878;2023-02-22T07:05:17;16.58;;;6.63;;
69207;SDS011;56321;47.662;8.878;2023-02-22T07:07:44;15.05;;;7.00;;
69207;SDS011;56321;47.662;8.878;2023-02-22T07:10:15;12.90;;;6.73;;
69207;SDS011;56321;47.662;8.878;2023-02-22T07:12:43;17.27;;;7.55;;
69207;SDS011;56321;47.662;8.878;2023-02-22T07:15:08;14.87;;;6.97;;
69207;SDS011;56321;47.662;8.878;2023-02-22T07:17:34;14.82;;;7.00;;
69207;SDS011;56321;47.662;8.878;2023-02-22T07:19:59;15.10;;;7.07;;
69207;SDS011;56321;47.662;8.878;2023-02-22T07:22:24;15.43;;;6.90;;
69207;SDS011;56321;47.662;8.878;2023-02-22T07:24:50;14.40;;;6.90;;
69207;SDS011;56321;47.662;8.878;2023-02-22T07:27:15;14.33;;;7.20;;
69207;SDS011;56321;47.662;8.878;2023-02-22T07:29:41;16.60;;;8.02;;
69207;SDS011;56321;47.662;8.878;2023-02-22T07:32:07;17.63;;;8.98;;
69207;SDS011;56321;47.662;8.878;2023-02-22T07:34:32;17.10;;;8.27;;
69207;SDS011;56321;47.662;8.878;2023-02-22T07:36:58;14.87;;;7.37;;
69207;SDS011;56321;47.662;8.878;2023-02-22T07:39:23;13.87;;;6.73;;
69207;SDS011;56321;47.662;8.878;2023-02-22T07:41:48;17.33;;;8.07;;
69207;SDS011;56321;47.662;8.878;2023-02-22T07:44:14;13.97;;;7.00;;
69207;SDS011;56321;47.662;8.878;2023-02-22T07:46:39;14.32;;;7.05;;
69207;SDS011;56321;47.662;8.878;2023-02-22T07:49:05;13.30;;;6.47;;
69207;SDS011;56321;47.662;8.878;2023-02-22T07:51:30;19.67;;;14.33;;
69207;SDS011;56321;47.662;8.878;2023-02-22T07:53:55;20.53;;;12.37;;
69207;SDS011;56321;47.662;8.878;2023-02-22T07:56:21;17.10;;;10.10;;
69207;SDS011;56321;47.662;8.878;2023-02-22T07:58:46;19.27;;;10.60;;
69207;SDS011;56321;47.662;8.878;2023-02-22T08:01:11;17.87;;;8.80;;
69207;SDS011;56321;47.662;8.878;2023-02-22T08:03:36;17.57;;;8.73;;
69207;SDS011;56321;47.662;8.878;2023-02-22T08:06:03;18.57;;;8.60;;
69207;SDS011;56321;47.662;8.878;2023-02-22T08:08:29;18.08;;;8.48;;
69207;SDS011;56321;47.662;8.878;2023-02-22T08:10:55;18.17;;;8.93;;
69207;SDS011;56321;47.662;8.878;2023-02-22T08:13:21;18.73;;;8.93;;
69207;SDS011;56321;47.662;8.878;2023-02-22T08:15:46;17.90;;;8.63;;
69207;SDS011;56321;47.662;8.878;2023-02-22T08:18:13;20.00;;;10.77;;
69207;SDS011;56321;47.662;8.878;2023-02-22T08:20:40;21.50;;;14.73;;
69207;SDS011;56321;47.662;8.878;2023-02-22T08:23:08;17.30;;;10.83;;
69207;SDS011;56321;47.662;8.878;2023-02-22T08:25:34;20.90;;;10.68;;
69207;SDS011;56321;47.662;8.878;2023-02-22T08:28:10;18.52;;;9.13;;
69207;SDS011;56321;47.662;8.878;2023-02-22T08:30:37;19.73;;;9.37;;
69207;SDS011;56321;47.662;8.878;2023-02-22T08:33:04;20.83;;;10.98;;
69207;SDS011;56321;47.662;8.878;2023-02-22T08:35:30;20.90;;;10.07;;
69207;SDS011;56321;47.662;8.878;2023-02-22T08:37:57;19.55;;;9.98;;
69207;SDS011;56321;47.662;8.878;2023-02-22T08:40:25;17.45;;;9.85;;
69207;SDS011;56321;47.662;8.878;2023-02-22T08:42:52;18.55;;;9.75;;
69207;SDS011;56321;47.662;8.878;2023-02-22T08:45:18;16.20;;;8.43;;
69207;SDS011;56321;47.662;8.878;2023-02-22T08:47:44;18.08;;;8.50;;
69207;SDS011;56321;47.662;8.878;2023-02-22T08:50:14;18.08;;;7.82;;
69207;SDS011;56321;47.662;8.878;2023-02-22T08:52:44;17.90;;;8.60;;
69207;SDS011;56321;47.662;8.878;2023-02-22T08:55:10;15.60;;;8.27;;
69207;SDS011;56321;47.662;8.878;2023-02-22T08:57:35;15.10;;;8.60;;
69207;SDS011;56321;47.662;8.878;2023-02-22T09:00:01;17.70;;;7.93;;
69207;SDS011;56321;47.662;8.878;2023-02-22T09:02:28;16.87;;;9.40;;
69207;SDS011;56321;47.662;8.878;2023-02-22T09:04:54;17.52;;;8.77;;
69207;SDS011;56321;47.662;8.878;2023-02-22T09:07:19;16.37;;;8.77;;
69207;SDS011;56321;47.662;8.878;2023-02-22T09:09:44;25.73;;;12.97;;
69207;SDS011;56321;47.662;8.878;2023-02-22T09:12:10;18.37;;;10.03;;
69207;SDS011;56321;47.662;8.878;2023-02-22T09:14:35;14.97;;;8.63;;
69207;SDS011;56321;47.662;8.878;2023-02-22T09:17:01;16.20;;;9.30;;
69207;SDS011;56321;47.662;8.878;2023-02-22T09:19:26;16.50;;;8.70;;
69207;SDS011;56321;47.662;8.878;2023-02-22T09:21:55;17.63;;;9.30;;
69207;SDS011;56321;47.662;8.878;2023-02-22T09:24:21;16.83;;;9.57;;
69207;SDS011;56321;47.662;8.878;2023-02-22T09:26:47;17.63;;;9.20;;
69207;SDS011;56321;47.662;8.878;2023-02-22T09:29:18;14.83;;;9.10;;
69207;SDS011;56321;47.662;8.878;2023-02-22T09:31:47;16.33;;;9.15;;
69207;SDS011;56321;47.662;8.878;2023-02-22T09:34:14;16.35;;;9.68;;
69207;SDS011;56321;47.662;8.878;2023-02-22T09:36:40;16.92;;;9.43;;
69207;SDS011;56321;47.662;8.878;2023-02-22T09:39:10;16.58;;;10.30;;
69207;SDS011;56321;47.662;8.878;2023-02-22T09:47:28;15.82;;;9.75;;
69207;SDS011;56321;47.662;8.878;2023-02-22T09:50:11;17.90;;;10.05;;
69207;SDS011;56321;47.662;8.878;2023-02-22T09:52:43;21.85;;;15.23;;
69207;SDS011;56321;47.662;8.878;2023-02-22T09:57:52;15.40;;;9.88;;
69207;SDS011;56321;47.662;8.878;2023-02-22T10:00:23;17.10;;;10.75;;
69207;SDS011;56321;47.662;8.878;2023-02-22T10:05:43;18.25;;;10.15;;
69207;SDS011;56321;47.662;8.878;2023-02-22T10:08:13;16.30;;;10.43;;
69207;SDS011;56321;47.662;8.878;2023-02-22T10:10:43;16.15;;;10.23;;
69207;SDS011;56321;47.662;8.878;2023-02-22T10:13:14;16.52;;;10.63;;
69207;SDS011;56321;47.662;8.878;2023-02-22T10:16:02;15.30;;;10.65;;
69207;SDS011;56321;47.662;8.878;2023-02-22T10:18:41;14.73;;;10.90;;
69207;SDS011;56321;47.662;8.878;2023-02-22T10:27:04;15.07;;;11.13;;
69207;SDS011;56321;47.662;8.878;2023-02-22T10:29:36;15.60;;;10.38;;
69207;SDS011;56321;47.662;8.878;2023-02-22T10:32:07;14.77;;;10.80;;
69207;SDS011;56321;47.662;8.878;2023-02-22T10:34:40;15.30;;;11.63;;
69207;SDS011;56321;47.662;8.878;2023-02-22T10:39:48;16.42;;;10.55;;
69207;SDS011;56321;47.662;8.878;2023-02-22T10:42:16;15.27;;;11.07;;
69207;SDS011;56321;47.662;8.878;2023-02-22T10:44:45;14.38;;;10.70;;
69207;SDS011;56321;47.662;8.878;2023-02-22T10:47:12;14.27;;;10.77;;
69207;SDS011;56321;47.662;8.878;2023-02-22T10:49:40;15.48;;;11.10;;
69207;SDS011;56321;47.662;8.878;2023-02-22T10:52:31;14.43;;;11.77;;
69207;SDS011;56321;47.662;8.878;2023-02-22T10:54:58;14.75;;;11.18;;
69207;SDS011;56321;47.662;8.878;2023-02-22T10:57:26;14.05;;;11.43;;
69207;SDS011;56321;47.662;8.878;2023-02-22T10:59:55;14.00;;;10.77;;
69207;SDS011;56321;47.662;8.878;2023-02-22T11:02:28;13.45;;;11.10;;
69207;SDS011;56321;47.662;8.878;2023-02-22T11:04:56;15.00;;;11.35;;
69207;SDS011;56321;47.662;8.878;2023-02-22T11:07:25;15.75;;;12.20;;
69207;SDS011;56321;47.662;8.878;2023-02-22T11:09:53;13.65;;;11.40;;
69207;SDS011;56321;47.662;8.878;2023-02-22T11:12:39;15.37;;;11.23;;
69207;SDS011;56321;47.662;8.878;2023-02-22T11:17:41;14.23;;;11.65;;
69207;SDS011;56321;47.662;8.878;2023-02-22T11:22:49;15.00;;;11.45;;
69207;SDS011;56321;47.662;8.878;2023-02-22T11:25:19;14.17;;;11.23;;
69207;SDS011;56321;47.662;8.878;2023-02-22T11:27:46;14.77;;;10.88;;
69207;SDS011;56321;47.662;8.878;2023-02-22T11:30:45;13.57;;;10.57;;
69207;SDS011;56321;47.662;8.878;2023-02-22T11:38:19;15.75;;;11.20;;
69207;SDS011;56321;47.662;8.878;2023-02-22T11:40:45;14.05;;;10.90;;
69207;SDS011;56321;47.662;8.878;2023-02-22T11:43:17;14.67;;;10.90;;
69207;SDS011;56321;47.662;8.878;2023-02-22T11:48:27;14.60;;;11.13;;
69207;SDS011;56321;47.662;8.878;2023-02-22T11:50:57;14.73;;;11.20;;
69207;SDS011;56321;47.662;8.878;2023-02-22T11:56:39;15.17;;;11.57;;
69207;SDS011;56321;47.662;8.878;2023-02-22T12:02:23;14.70;;;10.73;;
69207;SDS011;56321;47.662;8.878;2023-02-22T12:05:16;14.85;;;10.48;;
69207;SDS011;56321;47.662;8.878;2023-02-22T12:07:52;13.95;;;10.38;;
69207;SDS011;56321;47.662;8.878;2023-02-22T12:16:10;13.95;;;10.43;;
69207;SDS011;56321;47.662;8.878;2023-02-22T12:19:17;12.80;;;10.45;;
69207;SDS011;56321;47.662;8.878;2023-02-22T12:21:55;14.63;;;10.75;;
69207;SDS011;56321;47.662;8.878;2023-02-22T12:24:26;15.63;;;9.90;;
69207;SDS011;56321;47.662;8.878;2023-02-22T12:27:08;13.18;;;9.10;;
69207;SDS011;56321;47.662;8.878;2023-02-22T12:29:45;14.25;;;9.20;;
69207;SDS011;56321;47.662;8.878;2023-02-22T12:32:29;12.98;;;8.65;;
69207;SDS011;56321;47.662;8.878;2023-02-22T12:35:41;12.77;;;8.48;;
69207;SDS011;56321;47.662;8.878;2023-02-22T12:45:59;14.45;;;9.25;;
69207;SDS011;56321;47.662;8.878;2023-02-22T12:48:41;12.05;;;8.90;;
69207;SDS011;56321;47.662;8.878;2023-02-22T12:53:39;12.35;;;8.30;;
69207;SDS011;56321;47.662;8.878;2023-02-22T12:56:23;13.85;;;8.93;;
69207;SDS011;56321;47.662;8.878;2023-02-22T12:58:56;12.85;;;8.60;;
69207;SDS011;56321;47.662;8.878;2023-02-22T13:01:29;12.55;;;8.57;;
69207;SDS011;56321;47.662;8.878;2023-02-22T13:04:00;12.73;;;7.93;;
69207;SDS011;56321;47.662;8.878;2023-02-22T13:09:27;13.38;;;8.15;;
69207;SDS011;56321;47.662;8.878;2023-02-22T13:17:46;11.90;;;7.50;;
69207;SDS011;56321;47.662;8.878;2023-02-22T13:20:25;11.93;;;7.65;;
69207;SDS011;56321;47.662;8.878;2023-02-22T13:23:02;11.65;;;7.22;;
69207;SDS011;56321;47.662;8.878;2023-02-22T13:25:40;12.23;;;7.15;;
69207;SDS011;56321;47.662;8.878;2023-02-22T13:44:36;13.07;;;6.47;;
69207;SDS011;56321;47.662;8.878;2023-02-22T13:47:32;11.52;;;6.60;;
69207;SDS011;56321;47.662;8.878;2023-02-22T13:53:13;10.35;;;5.32;;
69207;SDS011;56321;47.662;8.878;2023-02-22T13:55:41;10.05;;;5.18;;
69207;SDS011;56321;47.662;8.878;2023-02-22T13:58:11;8.87;;;4.83;;
69207;SDS011;56321;47.662;8.878;2023-02-22T14:00:39;11.15;;;5.30;;
69207;SDS011;56321;47.662;8.878;2023-02-22T14:05:45;9.40;;;4.82;;
69207;SDS011;56321;47.662;8.878;2023-02-22T14:10:51;9.50;;;4.50;;
69207;SDS011;56321;47.662;8.878;2023-02-22T14:13:21;11.73;;;5.20;;
69207;SDS011;56321;47.662;8.878;2023-02-22T14:18:45;11.05;;;5.07;;
69207;SDS011;56321;47.662;8.878;2023-02-22T14:21:18;11.07;;;5.40;;
69207;SDS011;56321;47.662;8.878;2023-02-22T14:23:48;9.65;;;4.80;;
69207;SDS011;56321;47.662;8.878;2023-02-22T14:31:18;11.07;;;5.63;;
69207;SDS011;56321;47.662;8.878;2023-02-22T14:33:48;11.02;;;5.57;;
69207;SDS011;56321;47.662;8.878;2023-02-22T14:36:21;11.02;;;5.20;;
69207;SDS011;56321;47.662;8.878;2023-02-22T14:38:50;9.68;;;4.93;;
69207;SDS011;56321;47.662;8.878;2023-02-22T14:41:18;10.83;;;5.40;;
69207;SDS011;56321;47.662;8.878;2023-02-22T14:43:50;11.00;;;5.10;;
69207;SDS011;56321;47.662;8.878;2023-02-22T14:46:20;11.90;;;5.88;;
69207;SDS011;56321;47.662;8.878;2023-02-22T14:48:48;12.70;;;5.88;;
69207;SDS011;56321;47.662;8.878;2023-02-22T14:51:20;11.77;;;5.43;;
69207;SDS011;56321;47.662;8.878;2023-02-22T14:54:38;10.57;;;5.90;;
69207;SDS011;56321;47.662;8.878;2023-02-22T14:57:02;11.23;;;5.78;;
69207;SDS011;56321;47.662;8.878;2023-02-22T15:00:00;12.50;;;5.80;;
69207;SDS011;56321;47.662;8.878;2023-02-22T15:02:56;11.18;;;6.10;;
69207;SDS011;56321;47.662;8.878;2023-02-22T15:05:23;11.45;;;5.93;;
69207;SDS011;56321;47.662;8.878;2023-02-22T15:07:58;12.83;;;6.40;;
69207;SDS011;56321;47.662;8.878;2023-02-22T15:10:29;11.90;;;6.22;;
69207;SDS011;56321;47.662;8.878;2023-02-22T15:15:46;10.93;;;5.90;;
69207;SDS011;56321;47.662;8.878;2023-02-22T15:23:59;11.27;;;5.75;;
69207;SDS011;56321;47.662;8.878;2023-02-22T15:26:30;13.07;;;6.50;;
69207;SDS011;56321;47.662;8.878;2023-02-22T15:28:59;12.13;;;6.05;;
69207;SDS011;56321;47.662;8.878;2023-02-22T15:31:28;11.98;;;6.40;;
69207;SDS011;56321;47.662;8.878;2023-02-22T15:33:55;13.05;;;6.85;;
69207;SDS011;56321;47.662;8.878;2023-02-22T15:36:24;15.13;;;6.80;;
69207;SDS011;56321;47.662;8.878;2023-02-22T15:38:54;11.85;;;6.55;;
69207;SDS011;56321;47.662;8.878;2023-02-22T15:41:31;14.20;;;7.00;;
69207;SDS011;56321;47.662;8.878;2023-02-22T15:44:01;11.23;;;6.10;;
69207;SDS011;56321;47.662;8.878;2023-02-22T15:46:30;14.13;;;7.00;;
69207;SDS011;56321;47.662;8.878;2023-02-22T15:51:32;13.30;;;6.40;;
69207;SDS011;56321;47.662;8.878;2023-02-22T15:53:59;12.43;;;6.82;;
69207;SDS011;56321;47.662;8.878;2023-02-22T15:56:27;14.88;;;7.03;;
69207;SDS011;56321;47.662;8.878;2023-02-22T15:59:13;13.00;;;7.23;;
69207;SDS011;56321;47.662;8.878;2023-02-22T16:01:52;13.82;;;6.88;;
69207;SDS011;56321;47.662;8.878;2023-02-22T16:04:21;12.57;;;6.80;;
69207;SDS011;56321;47.662;8.878;2023-02-22T16:06:48;13.68;;;7.18;;
69207;SDS011;56321;47.662;8.878;2023-02-22T16:09:17;14.45;;;7.85;;
69207;SDS011;56321;47.662;8.878;2023-02-22T16:11:49;12.97;;;7.50;;
69207;SDS011;56321;47.662;8.878;2023-02-22T16:22:46;13.55;;;7.30;;
69207;SDS011;56321;47.662;8.878;2023-02-22T16:25:21;12.30;;;6.93;;
69207;SDS011;56321;47.662;8.878;2023-02-22T16:28:02;14.23;;;6.72;;
69207;SDS011;56321;47.662;8.878;2023-02-22T16:30:55;13.18;;;6.93;;
69207;SDS011;56321;47.662;8.878;2023-02-22T16:33:21;14.05;;;7.78;;
69207;SDS011;56321;47.662;8.878;2023-02-22T16:35:46;13.87;;;7.87;;
69207;SDS011;56321;47.662;8.878;2023-02-22T16:38:21;13.73;;;7.85;;
69207;SDS011;56321;47.662;8.878;2023-02-22T16:40:48;14.90;;;7.90;;
69207;SDS011;56321;47.662;8.878;2023-02-22T16:43:20;14.90;;;8.30;;
69207;SDS011;56321;47.662;8.878;2023-02-22T16:45:47;14.65;;;7.90;;
69207;SDS011;56321;47.662;8.878;2023-02-22T16:48:17;13.88;;;8.27;;
69207;SDS011;56321;47.662;8.878;2023-02-22T16:50:45;15.37;;;8.30;;
69207;SDS011;56321;47.662;8.878;2023-02-22T16:53:11;16.02;;;8.95;;
69207;SDS011;56321;47.662;8.878;2023-02-22T16:55:37;17.63;;;8.80;;
69207;SDS011;56321;47.662;8.878;2023-02-22T16:58:02;16.33;;;8.77;;
69207;SDS011;56321;47.662;8.878;2023-02-22T17:00:28;15.63;;;8.93;;
69207;SDS011;56321;47.662;8.878;2023-02-22T17:02:59;16.53;;;8.80;;
69207;SDS011;56321;47.662;8.878;2023-02-22T17:05:32;15.30;;;8.40;;
69207;SDS011;56321;47.662;8.878;2023-02-22T17:08:01;15.68;;;8.35;;
69207;SDS011;56321;47.662;8.878;2023-02-22T17:10:27;16.77;;;8.98;;
69207;SDS011;56321;47.662;8.878;2023-02-22T17:12:53;17.80;;;9.10;;
69207;SDS011;56321;47.662;8.878;2023-02-22T17:15:23;15.18;;;8.80;;
69207;SDS011;56321;47.662;8.878;2023-02-22T17:17:51;15.43;;;8.50;;